Terminal Aerodrome Forecast
Issued by NWS

Home | Current Version | Previous Version | Graphics & Text | Print | Product List | Glossary Off
Versions: 1 2 3 4 5 6 7 8 9 10 11 12 13 14 15 16

605
FTUS43 KMPX 251736
TAFRWF
TAF
KRWF 251736Z 2518/2618 06012G18KT P6SM OVC012
     FM260500 08007KT 4SM BR OVC007
     FM260800 06006KT P6SM OVC004=

USA.gov is the U.S. government's official web portal to all federal, state and local government web resources and services.